createdAt,value
2018-11-26T00:01:26.483Z,95.20
2018-11-26T00:04:01.725Z,95.20
2018-11-26T00:06:37.235Z,95.20
2018-11-26T00:09:12.921Z,95.20
2018-11-26T00:11:48.444Z,95.20
2018-11-26T00:14:24.479Z,95.10
2018-11-26T00:19:38.847Z,95.10
2018-11-26T00:22:14.202Z,95.00
2018-11-26T00:24:50.182Z,95.00
2018-11-26T00:27:25.831Z,95.00
2018-11-26T00:30:01.810Z,95.00
2018-11-26T00:32:37.483Z,95.00
2018-11-26T00:35:13.553Z,94.90
2018-11-26T00:37:49.264Z,94.90
2018-11-26T00:40:24.465Z,94.80
2018-11-26T00:43:00.697Z,94.80
2018-11-26T00:45:36.327Z,94.80
2018-11-26T00:48:12.086Z,94.90
2018-11-26T00:50:48.020Z,94.90
2018-11-26T00:53:23.042Z,94.80
2018-11-26T00:55:58.918Z,94.80
2018-11-26T00:58:33.978Z,94.70
2018-11-26T01:01:09.963Z,94.80
2018-11-26T01:03:45.631Z,94.70
2018-11-26T01:06:21.583Z,94.70
2018-11-26T01:08:57.386Z,94.60
2018-11-26T01:11:33.206Z,94.60
2018-11-26T01:14:08.997Z,94.70
2018-11-26T01:16:44.015Z,94.60
2018-11-26T01:19:20.903Z,94.60
2018-11-26T01:21:56.981Z,94.50
2018-11-26T01:24:32.789Z,94.60
2018-11-26T01:27:09.856Z,94.60
2018-11-26T01:29:45.723Z,94.60
2018-11-26T01:32:21.549Z,94.60
2018-11-26T01:34:57.518Z,94.60
2018-11-26T01:37:33.351Z,94.60
2018-11-26T01:40:13.298Z,94.50
2018-11-26T01:42:49.416Z,94.40
2018-11-26T01:45:25.127Z,94.50
2018-11-26T01:48:01.011Z,94.50
2018-11-26T01:50:36.281Z,94.40
2018-11-26T01:53:11.869Z,94.40
2018-11-26T01:55:49.264Z,94.60
2018-11-26T01:58:25.005Z,94.60
2018-11-26T02:01:00.999Z,94.60
2018-11-26T02:03:36.712Z,94.60
2018-11-26T02:06:12.731Z,94.70
2018-11-26T02:08:48.579Z,94.70
2018-11-26T02:11:24.597Z,94.60
2018-11-26T02:14:00.098Z,94.60
2018-11-26T02:16:36.178Z,94.60
2018-11-26T02:19:11.981Z,94.60
2018-11-26T02:21:47.918Z,94.60
2018-11-26T02:24:23.717Z,94.60
2018-11-26T02:26:58.852Z,94.50
2018-11-26T02:29:34.573Z,94.60
2018-11-26T02:32:10.542Z,94.60
2018-11-26T02:34:46.202Z,94.60
2018-11-26T02:37:21.374Z,94.50
2018-11-26T02:39:57.125Z,94.50
2018-11-26T02:42:32.187Z,94.50
2018-11-26T02:45:07.498Z,94.50
2018-11-26T02:47:42.798Z,94.50
2018-11-26T02:50:18.527Z,94.40
2018-11-26T02:52:53.504Z,94.40
2018-11-26T02:55:29.326Z,94.40
2018-11-26T02:58:04.424Z,94.40
2018-11-26T03:00:40.298Z,94.40
2018-11-26T03:03:16.457Z,94.40
2018-11-26T03:05:52.146Z,94.50
2018-11-26T03:08:27.858Z,94.60
2018-11-26T03:11:03.643Z,94.50
2018-11-26T03:13:39.307Z,94.50
2018-11-26T03:16:15.039Z,94.50
2018-11-26T03:18:50.239Z,94.50
2018-11-26T03:21:25.809Z,94.50
2018-11-26T03:24:01.079Z,94.50
2018-11-26T03:26:36.845Z,94.50
2018-11-26T03:29:12.615Z,94.50
2018-11-26T03:31:47.632Z,94.50
2018-11-26T03:34:22.647Z,94.50
2018-11-26T03:36:58.397Z,94.50
2018-11-26T03:39:34.366Z,94.60
2018-11-26T03:42:09.410Z,94.60
2018-11-26T03:44:45.186Z,94.60
2018-11-26T03:47:20.973Z,94.60
2018-11-26T03:49:57.024Z,94.60
2018-11-26T03:52:33.830Z,94.60
2018-11-26T03:55:10.106Z,94.70
2018-11-26T03:57:45.533Z,94.60
2018-11-26T04:00:21.497Z,94.60
2018-11-26T04:02:57.262Z,94.60
2018-11-26T04:05:32.497Z,94.60
2018-11-26T04:08:08.219Z,94.60
2018-11-26T04:10:43.353Z,94.60
2018-11-26T04:13:18.939Z,94.60
2018-11-26T04:15:54.891Z,94.70
2018-11-26T04:18:30.596Z,94.60
2018-11-26T04:21:06.570Z,94.60
2018-11-26T04:23:42.404Z,94.60
2018-11-26T04:26:18.356Z,94.70
2018-11-26T04:28:54.134Z,94.70
2018-11-26T04:31:29.982Z,94.70
2018-11-26T04:34:05.761Z,94.70
2018-11-26T04:36:40.780Z,94.70
2018-11-26T04:39:16.579Z,94.60
2018-11-26T04:41:51.769Z,94.70
2018-11-26T04:44:27.608Z,94.70
2018-11-26T04:47:03.700Z,94.70
2018-11-26T04:49:39.370Z,94.70
2018-11-26T04:52:14.425Z,94.80
2018-11-26T04:54:50.213Z,94.80
2018-11-26T04:57:25.137Z,94.80
2018-11-26T05:00:00.876Z,94.90
2018-11-26T05:02:36.949Z,95.00
2018-11-26T05:05:13.135Z,95.10
2018-11-26T05:07:48.267Z,95.20
2018-11-26T05:10:23.985Z,95.20
2018-11-26T05:13:00.012Z,95.30
2018-11-26T05:15:35.801Z,95.40
2018-11-26T05:18:10.808Z,95.40
2018-11-26T05:20:45.725Z,95.40
2018-11-26T05:23:21.744Z,95.50
2018-11-26T05:25:57.433Z,95.50
2018-11-26T05:28:32.547Z,95.50
2018-11-26T05:31:08.292Z,95.50
2018-11-26T05:33:44.382Z,95.50
2018-11-26T05:36:20.177Z,95.60
2018-11-26T05:38:56.085Z,95.60
2018-11-26T05:41:32.121Z,95.60
2018-11-26T05:44:08.141Z,95.70
2018-11-26T05:46:43.111Z,95.70
2018-11-26T05:49:18.161Z,95.80
2018-11-26T05:51:53.923Z,95.80
2018-11-26T05:54:29.146Z,95.90
2018-11-26T05:57:05.170Z,95.90
2018-11-26T05:59:40.987Z,95.90
2018-11-26T06:02:16.592Z,95.90
2018-11-26T06:04:52.512Z,95.90
2018-11-26T06:07:27.898Z,95.90
2018-11-26T06:10:03.811Z,95.90
2018-11-26T06:12:39.638Z,95.90
2018-11-26T06:15:15.697Z,95.80
2018-11-26T06:17:51.321Z,95.90
2018-11-26T06:20:27.316Z,95.90
2018-11-26T06:23:03.101Z,95.90
2018-11-26T06:25:39.019Z,95.90
2018-11-26T06:28:13.965Z,95.90
2018-11-26T06:30:49.063Z,95.80
2018-11-26T06:33:24.814Z,96.00
2018-11-26T06:36:00.860Z,96.00
2018-11-26T06:38:36.374Z,95.90
2018-11-26T06:41:12.178Z,95.90
2018-11-26T06:43:48.007Z,95.90
2018-11-26T06:46:24.018Z,95.90
2018-11-26T06:48:59.719Z,95.90
2018-11-26T06:51:34.828Z,95.90
2018-11-26T06:54:10.506Z,95.80
2018-11-26T06:56:46.576Z,95.90
2018-11-26T06:59:22.260Z,95.80
2018-11-26T07:01:58.177Z,95.80
2018-11-26T07:04:35.015Z,95.90
2018-11-26T07:07:10.725Z,95.80
2018-11-26T07:09:46.560Z,95.80
2018-11-26T07:12:22.570Z,95.80
2018-11-26T07:14:58.371Z,95.80
2018-11-26T07:17:34.401Z,95.80
2018-11-26T07:20:18.118Z,95.80
2018-11-26T07:22:53.138Z,95.70
2018-11-26T07:25:29.042Z,95.90
2018-11-26T07:28:06.897Z,95.90
2018-11-26T07:30:42.287Z,95.90
2018-11-26T07:33:18.303Z,95.90
2018-11-26T07:35:53.729Z,95.90
2018-11-26T07:38:29.723Z,95.90
2018-11-26T07:41:06.223Z,95.80
2018-11-26T07:43:41.431Z,95.90
2018-11-26T07:46:17.249Z,95.60
2018-11-26T07:48:53.274Z,95.90
2018-11-26T07:51:28.913Z,95.80
2018-11-26T07:54:04.827Z,95.80
2018-11-26T07:56:40.596Z,95.80
2018-11-26T07:59:16.520Z,95.70
2018-11-26T08:01:52.320Z,95.80
2018-11-26T08:04:27.321Z,95.70
2018-11-26T08:07:02.332Z,95.70
2018-11-26T08:09:38.241Z,95.80
2018-11-26T08:12:15.119Z,95.70
2018-11-26T08:14:50.430Z,95.70
2018-11-26T08:17:25.848Z,95.70
2018-11-26T08:20:02.202Z,95.60
2018-11-26T08:22:37.192Z,95.70
2018-11-26T08:25:13.427Z,95.70
2018-11-26T08:27:49.581Z,95.70
2018-11-26T08:30:26.319Z,96.00
2018-11-26T08:33:01.971Z,95.60
2018-11-26T08:35:37.837Z,95.40
2018-11-26T08:38:19.120Z,95.30
2018-11-26T08:40:59.837Z,95.30
2018-11-26T08:43:39.461Z,95.30
2018-11-26T08:46:20.547Z,95.30
2018-11-26T08:49:01.069Z,95.40
2018-11-26T08:51:36.562Z,95.30
2018-11-26T08:54:12.578Z,95.20
2018-11-26T08:56:47.864Z,95.20
2018-11-26T08:59:23.778Z,95.20
2018-11-26T09:02:00.465Z,95.30
2018-11-26T09:04:41.423Z,94.90
2018-11-26T09:07:17.565Z,95.20
2018-11-26T09:09:52.838Z,94.90
2018-11-26T09:12:28.776Z,94.90
2018-11-26T09:15:05.244Z,95.10
2018-11-26T09:17:40.393Z,95.00
2018-11-26T09:20:16.147Z,95.00
2018-11-26T09:22:51.303Z,94.90
2018-11-26T09:25:26.234Z,94.80
2018-11-26T09:28:02.194Z,94.60
2018-11-26T09:30:38.848Z,94.80
2018-11-26T09:33:13.773Z,94.60
2018-11-26T09:35:49.750Z,94.60
2018-11-26T09:38:25.630Z,94.80
2018-11-26T09:41:02.640Z,94.80
2018-11-26T09:43:37.863Z,94.80
2018-11-26T09:46:33.846Z,94.80
2018-11-26T09:49:09.373Z,94.70
2018-11-26T09:51:45.221Z,94.60
2018-11-26T09:54:25.847Z,94.60
2018-11-26T09:56:57.029Z,94.50
2018-11-26T09:59:32.898Z,94.40
2018-11-26T10:02:08.843Z,94.50
2018-11-26T10:04:44.751Z,94.30
2018-11-26T10:07:22.229Z,94.20
2018-11-26T10:09:57.488Z,94.40
2018-11-26T10:12:33.378Z,94.40
2018-11-26T10:15:14.110Z,94.10
2018-11-26T10:17:50.030Z,94.10
2018-11-26T10:20:25.853Z,94.30
2018-11-26T10:23:01.766Z,94.50
2018-11-26T10:25:37.644Z,94.40
2018-11-26T10:28:12.574Z,94.00
2018-11-26T10:30:47.612Z,94.20
2018-11-26T10:33:22.597Z,94.30
2018-11-26T10:35:58.561Z,94.30
2018-11-26T10:38:34.321Z,93.90
2018-11-26T10:41:09.208Z,94.20
2018-11-26T10:43:44.321Z,94.10
2018-11-26T10:46:20.289Z,94.20
2018-11-26T10:48:56.304Z,93.90
2018-11-26T10:51:32.277Z,93.70
2018-11-26T10:54:07.278Z,94.00
2018-11-26T10:56:42.272Z,93.70
2018-11-26T10:59:18.011Z,93.70
2018-11-26T11:01:58.724Z,93.70
2018-11-26T11:04:34.146Z,93.80
2018-11-26T11:07:10.091Z,93.90
2018-11-26T11:09:45.843Z,94.00
2018-11-26T11:12:21.703Z,94.10
2018-11-26T11:14:57.393Z,94.00
2018-11-26T11:17:33.539Z,93.90
2018-11-26T11:20:14.553Z,93.60
2018-11-26T11:22:50.015Z,93.90
2018-11-26T11:25:25.164Z,93.70
2018-11-26T11:28:01.495Z,93.60
2018-11-26T11:30:36.642Z,93.70
2018-11-26T11:35:47.399Z,93.70
2018-11-26T11:38:23.163Z,93.70
2018-11-26T11:40:58.274Z,94.00
2018-11-26T11:43:34.160Z,93.70
2018-11-26T11:46:10.013Z,93.50
2018-11-26T11:48:44.970Z,93.70
2018-11-26T11:51:21.028Z,93.80
2018-11-26T11:53:56.933Z,93.80
2018-11-26T11:56:32.939Z,93.50
2018-11-26T11:59:08.450Z,93.60
2018-11-26T12:01:43.898Z,93.50
2018-11-26T12:04:19.765Z,93.50
2018-11-26T12:06:54.896Z,93.70
2018-11-26T12:09:30.647Z,93.80
2018-11-26T12:12:06.534Z,93.60
2018-11-26T12:14:42.461Z,93.50
2018-11-26T12:17:18.310Z,93.60
2018-11-26T12:19:53.312Z,93.30
2018-11-26T12:22:29.179Z,93.70
2018-11-26T12:25:05.869Z,93.70
2018-11-26T12:27:40.974Z,93.40
2018-11-26T12:30:18.634Z,93.80
2018-11-26T12:32:54.034Z,93.70
2018-11-26T12:35:29.171Z,93.70
2018-11-26T12:38:04.280Z,93.50
2018-11-26T12:40:39.463Z,93.60
2018-11-26T12:43:14.984Z,93.30
2018-11-26T12:45:50.420Z,93.40
2018-11-26T12:48:25.459Z,93.20
2018-11-26T12:51:00.549Z,93.10
2018-11-26T12:53:36.191Z,93.20
2018-11-26T12:56:11.691Z,92.90
2018-11-26T12:58:46.921Z,93.00
2018-11-26T13:01:21.861Z,93.40
2018-11-26T13:03:58.349Z,92.90
2018-11-26T13:06:33.667Z,93.10
2018-11-26T13:09:09.148Z,93.20
2018-11-26T13:11:44.559Z,93.10
2018-11-26T13:14:19.480Z,93.00
2018-11-26T13:16:55.238Z,93.20
2018-11-26T13:19:30.997Z,93.50
2018-11-26T13:22:07.096Z,93.30
2018-11-26T13:24:42.676Z,93.40
2018-11-26T13:27:17.853Z,93.20
2018-11-26T13:29:53.304Z,93.10
2018-11-26T13:32:29.263Z,92.90
2018-11-26T13:35:07.175Z,93.00
2018-11-26T13:37:42.421Z,93.10
2018-11-26T13:40:19.017Z,93.20
2018-11-26T13:42:54.957Z,93.40
2018-11-26T13:45:34.732Z,93.20
2018-11-26T13:48:11.135Z,92.90
2018-11-26T13:50:54.103Z,93.00
2018-11-26T13:53:29.708Z,92.70
2018-11-26T13:56:04.717Z,92.90
2018-11-26T13:58:40.037Z,93.20
2018-11-26T14:01:15.473Z,93.30
2018-11-26T14:03:51.997Z,93.20
2018-11-26T14:06:27.143Z,93.00
2018-11-26T14:09:02.717Z,92.90
2018-11-26T14:11:37.982Z,92.70
2018-11-26T14:14:13.615Z,93.00
2018-11-26T14:16:49.280Z,92.90
2018-11-26T14:19:25.075Z,92.70
2018-11-26T14:22:00.993Z,92.80
2018-11-26T14:24:36.823Z,93.00
2018-11-26T14:27:12.187Z,92.70
2018-11-26T14:29:48.123Z,92.80
2018-11-26T14:32:23.948Z,92.90
2018-11-26T14:34:59.359Z,93.10
2018-11-26T14:37:34.713Z,93.20
2018-11-26T14:40:13.323Z,93.30
2018-11-26T14:42:49.023Z,93.10
2018-11-26T14:45:24.286Z,93.00
2018-11-26T14:48:00.344Z,93.10
2018-11-26T14:50:35.567Z,93.20
2018-11-26T14:53:14.198Z,93.00
2018-11-26T14:55:49.855Z,92.90
2018-11-26T14:58:25.505Z,92.90
2018-11-26T15:01:00.445Z,92.90
2018-11-26T15:03:35.432Z,93.00
2018-11-26T15:06:11.371Z,93.10
2018-11-26T15:08:46.483Z,93.30
2018-11-26T15:11:21.721Z,93.10
2018-11-26T15:13:56.817Z,93.40
2018-11-26T15:16:32.652Z,93.20
2018-11-26T15:19:07.700Z,92.70
2018-11-26T15:21:43.455Z,92.70
2018-11-26T15:24:19.120Z,92.70
2018-11-26T15:26:54.023Z,92.90
2018-11-26T15:29:29.698Z,93.10
2018-11-26T15:32:05.179Z,93.30
2018-11-26T15:34:40.778Z,92.90
2018-11-26T15:37:16.533Z,93.00
2018-11-26T15:39:53.457Z,93.10
2018-11-26T15:42:29.278Z,93.00
2018-11-26T15:45:07.044Z,92.40
2018-11-26T15:47:42.004Z,92.50
2018-11-26T15:50:17.766Z,92.50
2018-11-26T15:52:53.092Z,92.80
2018-11-26T15:55:28.177Z,93.10
2018-11-26T15:58:03.740Z,92.40
2018-11-26T16:00:39.182Z,92.40
2018-11-26T16:03:14.294Z,92.60
2018-11-26T16:05:49.373Z,92.10
2018-11-26T16:08:24.774Z,92.50
2018-11-26T16:11:00.579Z,92.40
2018-11-26T16:13:35.583Z,92.50
2018-11-26T16:16:11.100Z,92.70
2018-11-26T16:18:46.332Z,92.50
2018-11-26T16:21:22.610Z,92.30
2018-11-26T16:23:57.620Z,92.30
2018-11-26T16:26:33.102Z,92.40
2018-11-26T16:29:08.356Z,92.20
2018-11-26T16:31:43.883Z,92.20
2018-11-26T16:34:18.957Z,92.30
2018-11-26T16:36:53.961Z,92.40
2018-11-26T16:39:29.552Z,92.40
2018-11-26T16:42:04.908Z,92.40
2018-11-26T16:44:39.942Z,92.30
2018-11-26T16:47:14.998Z,92.30
2018-11-26T16:49:50.262Z,92.50
2018-11-26T16:52:25.499Z,92.30
2018-11-26T16:55:00.543Z,92.50
2018-11-26T16:57:35.961Z,92.20
2018-11-26T17:00:21.814Z,92.40
2018-11-26T17:02:58.784Z,92.20
2018-11-26T17:05:36.137Z,92.70
2018-11-26T17:08:14.730Z,92.40
2018-11-26T17:10:49.906Z,92.40
2018-11-26T17:13:25.209Z,92.50
2018-11-26T17:16:00.261Z,92.30
2018-11-26T17:18:35.474Z,92.40
2018-11-26T17:21:10.824Z,92.50
2018-11-26T17:23:45.763Z,92.70
2018-11-26T17:26:21.645Z,92.70
2018-11-26T17:28:56.750Z,92.50
2018-11-26T17:31:31.974Z,92.50
2018-11-26T17:34:07.448Z,92.80
2018-11-26T17:36:43.079Z,92.60
2018-11-26T17:39:18.379Z,92.50
2018-11-26T17:41:54.112Z,92.50
2018-11-26T17:44:29.554Z,92.20
2018-11-26T17:47:05.297Z,92.60
2018-11-26T17:49:40.995Z,92.60
2018-11-26T17:52:16.842Z,92.70
2018-11-26T17:54:52.033Z,92.40
2018-11-26T17:57:27.824Z,92.40
2018-11-26T18:00:03.021Z,92.60
2018-11-26T18:02:38.904Z,92.70
2018-11-26T18:05:15.858Z,92.70
2018-11-26T18:07:56.434Z,93.10
2018-11-26T18:10:31.738Z,92.90
2018-11-26T18:13:07.222Z,93.10
2018-11-26T18:15:42.261Z,92.90
2018-11-26T18:18:19.641Z,92.80
2018-11-26T18:20:55.354Z,92.70
2018-11-26T18:23:30.289Z,92.60
2018-11-26T18:26:05.415Z,92.60
2018-11-26T18:28:41.794Z,92.70
2018-11-26T18:31:17.717Z,92.80
2018-11-26T18:33:52.696Z,92.80
2018-11-26T18:36:28.519Z,93.00
2018-11-26T18:39:04.134Z,93.00
2018-11-26T18:41:39.845Z,92.60
2018-11-26T18:44:15.632Z,92.90
2018-11-26T18:46:50.669Z,92.80
2018-11-26T18:49:26.219Z,92.40
2018-11-26T18:52:01.550Z,92.20
2018-11-26T18:54:36.961Z,92.70
2018-11-26T18:57:12.100Z,93.00
2018-11-26T18:59:47.532Z,92.50
2018-11-26T19:02:23.188Z,92.50
2018-11-26T19:04:58.611Z,92.40
2018-11-26T19:07:33.586Z,92.50
2018-11-26T19:10:11.819Z,92.80
2018-11-26T19:12:48.982Z,92.80
2018-11-26T19:15:26.356Z,92.90
2018-11-26T19:18:11.103Z,92.70
2018-11-26T19:20:46.966Z,92.90
2018-11-26T19:23:23.004Z,92.60
2018-11-26T19:25:58.167Z,92.60
2018-11-26T19:28:33.234Z,92.60
2018-11-26T19:31:08.583Z,92.50
2018-11-26T19:33:43.653Z,92.80
2018-11-26T19:36:18.563Z,92.80
2018-11-26T19:38:53.739Z,92.80
2018-11-26T19:41:29.033Z,92.80
2018-11-26T19:44:05.018Z,92.50
2018-11-26T19:46:39.998Z,92.70
2018-11-26T19:49:15.912Z,92.80
2018-11-26T19:51:50.874Z,92.70
2018-11-26T19:54:26.283Z,92.70
2018-11-26T19:57:02.050Z,92.80
2018-11-26T19:59:37.968Z,92.70
2018-11-26T20:02:13.043Z,92.90
2018-11-26T20:04:53.153Z,93.20
2018-11-26T20:07:28.828Z,92.80
2018-11-26T20:10:04.672Z,93.00
2018-11-26T20:12:40.235Z,92.80
2018-11-26T20:15:16.962Z,92.90
2018-11-26T20:17:52.161Z,92.20
2018-11-26T20:20:27.332Z,92.30
2018-11-26T20:23:02.747Z,92.30
2018-11-26T20:25:37.845Z,92.00
2018-11-26T20:28:13.711Z,92.20
2018-11-26T20:30:48.830Z,92.40
2018-11-26T20:33:24.187Z,92.40
2018-11-26T20:35:59.682Z,92.30
2018-11-26T20:38:34.902Z,92.10
2018-11-26T20:41:10.861Z,92.40
2018-11-26T20:43:45.763Z,92.20
2018-11-26T20:46:20.998Z,92.20
2018-11-26T20:48:56.002Z,92.20
2018-11-26T20:51:31.253Z,91.90
2018-11-26T20:54:06.801Z,91.90
2018-11-26T20:56:42.644Z,91.90
2018-11-26T20:59:17.683Z,92.30
2018-11-26T21:01:53.867Z,92.20
2018-11-26T21:04:29.963Z,91.90
2018-11-26T21:07:06.113Z,92.10
2018-11-26T21:09:42.123Z,92.20
2018-11-26T21:12:18.296Z,92.20
2018-11-26T21:14:53.747Z,92.00
2018-11-26T21:17:29.713Z,92.30
2018-11-26T21:20:10.572Z,92.10
2018-11-26T21:22:46.428Z,92.10
2018-11-26T21:25:22.508Z,91.90
2018-11-26T21:27:58.340Z,92.10
2018-11-26T21:30:34.001Z,91.80
2018-11-26T21:33:09.893Z,92.10
2018-11-26T21:35:45.696Z,92.30
2018-11-26T21:38:21.138Z,91.90
2018-11-26T21:40:57.026Z,92.00
2018-11-26T21:43:32.839Z,92.00
2018-11-26T21:46:08.775Z,92.40
2018-11-26T21:48:44.597Z,92.30
2018-11-26T21:51:20.696Z,92.30
2018-11-26T21:53:55.809Z,91.90
2018-11-26T21:56:31.178Z,91.80
2018-11-26T21:59:06.298Z,91.90
2018-11-26T22:01:42.256Z,92.30
2018-11-26T22:04:18.225Z,92.40
2018-11-26T22:06:54.497Z,92.20
2018-11-26T22:09:30.313Z,92.20
2018-11-26T22:12:05.951Z,92.50
2018-11-26T22:14:41.865Z,92.20
2018-11-26T22:17:17.509Z,92.30
2018-11-26T22:19:53.360Z,92.60
2018-11-26T22:22:29.266Z,92.40
2018-11-26T22:25:05.341Z,92.70
2018-11-26T22:27:40.904Z,92.20
2018-11-26T22:30:20.079Z,92.00
2018-11-26T22:32:55.778Z,91.90
2018-11-26T22:35:31.116Z,91.80
2018-11-26T22:38:07.331Z,91.80
2018-11-26T22:40:43.182Z,91.90
2018-11-26T22:43:18.915Z,91.90
2018-11-26T22:45:54.698Z,92.20
2018-11-26T22:48:29.808Z,92.10
2018-11-26T22:51:05.282Z,92.10
2018-11-26T22:53:41.147Z,92.00
2018-11-26T22:56:16.701Z,92.00
2018-11-26T22:58:52.714Z,92.00
2018-11-26T23:01:27.728Z,92.00
2018-11-26T23:04:04.769Z,92.10
2018-11-26T23:06:40.048Z,92.20
2018-11-26T23:09:15.017Z,92.30
2018-11-26T23:11:50.805Z,92.30
2018-11-26T23:14:26.088Z,92.10
2018-11-26T23:17:01.996Z,92.10
2018-11-26T23:19:37.067Z,92.00
2018-11-26T23:22:12.171Z,92.00
2018-11-26T23:24:47.150Z,92.00
2018-11-26T23:27:23.085Z,92.20
2018-11-26T23:29:58.139Z,92.40
2018-11-26T23:32:33.305Z,92.50
2018-11-26T23:35:08.824Z,92.20
2018-11-26T23:37:44.041Z,92.30
2018-11-26T23:40:19.401Z,92.50
2018-11-26T23:42:54.943Z,92.30
2018-11-26T23:45:30.333Z,92.40
2018-11-26T23:48:06.285Z,92.30
2018-11-26T23:50:41.395Z,92.40
2018-11-26T23:53:16.491Z,92.30
2018-11-26T23:55:51.886Z,92.40
2018-11-26T23:58:27.460Z,92.20
